Αρχική σελίδα
METAR-TAF:

METAR-TAF

Αεροδρόμια :

Μάλτα, Μάλτα

γεωγραφικό πλάτος: 35-51N, γεωγραφικό μήκος: 014-29E, υψόμετρο: 91 μ

Παρών καιρός

Η αναφορά έγινε 29 λεπτά πριν, στις 17:45 UTC
Άνεμος 3 kt από Δ/BΔ
Θερμοκρασία 16°C
Υγρασία 72%
Πίεση 1011 hPa
Ορατότητα 10 χλμ και άνω
Λίγα νέφη σε ύψος 2500 πόδια

METAR: LMML 181745Z 29003KT 9999 FEW025 16/11 Q1011 NOSIG

Χρόνος: 19:14 (18:14 UTC)

Πρόγνωση Καιρού

Η αναφορά έγινε 1 ώρα και 14 λεπτά πριν, στις 17:00 UTC
Η πρόγνωση ισχύει από τις 18 στις 18 UTC έως τις 19 στις 18 UTC
Άνεμος 10 kt από Δ
Ορατότητα 10 χλμ και άνω
Λίγα νέφη σε ύψος 2000 πόδια
Καθιστάμενος
από 19 στις 04 UTC έως τις 19 στις 07 UTC
Άνεμος 8 kt από ΝΔ
Καθιστάμενος
από 19 στις 08 UTC έως τις 19 στις 11 UTC
Άνεμος 18 kt από Ν/ΝΔ

TAF: LMML 181700Z 1818/1918 28010KT 9999 FEW020 BECMG 1904/1907 22008KT BECMG 1908/1911 20018KT

Μετεωρολογικές αναφορές και προγνώσεις για περισσότερα από 4000 αεροδρόμια (δελτία METAR και TAF).

Οι διαθέσιμοι σταθμοί απεικονίζονται στο χάρτη με κίτρινες και κόκκινες κουκκίδες.

Μετακινήστε το ποντίκι πάνω από τις κουκκίδες για να δείτε το όνομα του σταθμού.

Στη συνέχεια, κάντε κλικ για να δείτε τις μετεωρολογικές αναφορές και τις προγνώσεις καιρού.

Για να αλλάξετε το χάρτη: κάντε κλικ στα πράσινα κουμπιά με τον μαύρο σταυρό για να ζουμάρετε, στο πράσινο κουμπί με την παύλα για να αφαιρέσετε το ζουμ ή στα πράσινα βέλη για να αντιπαραβάλλετε χάρτες.


METAR-TAF: